This is the latest recevied weather packets stored in our database for station/object OE-11099. If no packets are shown the sender has not sent any weather packets the latest 10 day(s).
| Time | Temp. | Humidity | Pressure | Rain* | Wind** | Luminosity | Snow |
|---|---|---|---|---|---|---|---|
| 1787913306 | 28.89° C | 44% | 1009 hPa | 0 mm | - | 186 W/m² | - |
| 1787912706 | 31.11° C | 33% | 1008.3 hPa | 0 mm | - | 286 W/m² | - |
| 1787911879 | 32.22° C | 30% | 1008.1 hPa | 0 mm | - | 592 W/m² | - |
| 1787911506 | 31.67° C | 27% | 1007.9 hPa | 0 mm | - | 479 W/m² | - |
| 1787910905 | 32.22° C | 29% | 1007.7 hPa | 0 mm | - | 605 W/m² | - |
| 1787910079 | 32.22° C | 28% | 1007.3 hPa | 0 mm | - | 738 W/m² | - |
| 1787909706 | 31.11° C | 29% | 1007.6 hPa | 0 mm | - | 226 W/m² | - |
| 1787909106 | 31.11° C | 30% | 1006.9 hPa | 0 mm | - | 180 W/m² | - |
| 1787908278 | 31.11° C | 29% | 1007 hPa | 0 mm | - | 239 W/m² | - |
| 1787907906 | 31.67° C | 29% | 1006.7 hPa | 0 mm | - | 592 W/m² | - |
| 1787907306 | 30.56° C | 34% | 1006.6 hPa | 0 mm | - | 565 W/m² | - |
| 1787906478 | 29.44° C | 37% | 1006.9 hPa | 0 mm | - | 233 W/m² | - |
| 1787906105 | 30° C | 38% | 1006.9 hPa | 0 mm | - | 505 W/m² | - |
| 1787905505 | 28.89° C | 38% | 1007.2 hPa | 0 mm | - | 465 W/m² | - |
| 1787904679 | 27.78° C | 43% | 1008.1 hPa | 0 mm | - | 239 W/m² | - |
| 1787904306 | 27.22° C | 44% | 1008.2 hPa | 0 mm | - | 133 W/m² | - |
| 1787903706 | 27.22° C | 43% | 1008.7 hPa | 0 mm | - | 126 W/m² | - |
| 1787902878 | 27.78° C | 41% | 1008.8 hPa | 0 mm | - | 120 W/m² | - |
| 1787902506 | 28.33° C | 38% | 1008.6 hPa | 0 mm | - | 153 W/m² | - |
| 1787901906 | 28.33° C | 38% | 1008.7 hPa | 0 mm | - | 100 W/m² | - |
| 1787901078 | 28.33° C | 35% | 1009 hPa | 0 mm | - | 86 W/m² | - |
| 1787900705 | 28.33° C | 37% | 1009.1 hPa | 0 mm | - | 93 W/m² | - |
| 1787900106 | 27.78° C | 38% | 1009.3 hPa | 0 mm | - | 47 W/m² | - |
| 1787899279 | 26.67° C | 40% | 1009.5 hPa | 0 mm | - | 27 W/m² | - |
| 1787898906 | 27.22° C | 41% | 1009 hPa | 0 mm | - | 7 W/m² | - |
* Rain latest hour (hover to see other rain measurements)
** Current wind speed in m/s (hover to see current wind gust speed)